createdAt,value
2023-07-12T00:01:31.169Z,12.10
2023-07-12T00:04:01.053Z,13.43
2023-07-12T00:06:30.910Z,13.77
2023-07-12T00:08:58.363Z,13.30
2023-07-12T00:11:25.187Z,13.87
2023-07-12T00:13:54.028Z,14.63
2023-07-12T00:16:23.856Z,12.10
2023-07-12T00:18:50.861Z,13.57
2023-07-12T00:21:24.373Z,12.70
2023-07-12T00:23:54.699Z,12.33
2023-07-12T00:26:22.406Z,12.53
2023-07-12T00:28:49.186Z,12.43
2023-07-12T00:31:15.913Z,12.23
2023-07-12T00:33:42.677Z,11.87
2023-07-12T00:38:57.757Z,11.60
2023-07-12T00:41:27.629Z,11.83
2023-07-12T00:43:54.669Z,11.93
2023-07-12T00:46:23.129Z,12.87
2023-07-12T00:51:52.423Z,12.93
2023-07-12T01:26:21.269Z,11.13
2023-07-12T01:28:48.889Z,12.30
2023-07-12T01:31:15.580Z,13.17
2023-07-12T01:33:42.337Z,15.20
2023-07-12T01:36:09.716Z,16.13
2023-07-12T01:38:36.630Z,15.77
2023-07-12T01:43:47.528Z,14.23
2023-07-12T01:48:58.906Z,13.33
2023-07-12T01:51:26.169Z,12.40
2023-07-12T01:53:52.856Z,13.13
2023-07-12T01:56:20.263Z,12.23
2023-07-12T01:58:47.134Z,13.17
2023-07-12T02:01:14.110Z,13.07
2023-07-12T02:03:41.027Z,13.03
2023-07-12T02:06:08.151Z,12.93
2023-07-12T02:08:34.779Z,12.60
2023-07-12T02:11:01.443Z,12.23
2023-07-12T02:13:28.206Z,12.60
2023-07-12T02:15:54.822Z,11.57
2023-07-12T02:18:21.814Z,14.97
2023-07-12T02:20:48.568Z,12.17
2023-07-12T02:23:15.309Z,12.53
2023-07-12T02:25:42.712Z,12.90
2023-07-12T02:30:53.531Z,14.40
2023-07-12T02:33:20.228Z,16.37
2023-07-12T02:35:46.914Z,15.13
2023-07-12T02:38:13.647Z,14.10
2023-07-12T02:40:40.342Z,13.80
2023-07-12T02:43:09.223Z,13.07
2023-07-12T02:45:35.950Z,13.30
2023-07-12T02:48:02.680Z,13.00
2023-07-12T02:50:29.318Z,12.20
2023-07-12T02:52:56.225Z,14.33
2023-07-12T02:55:22.975Z,12.97
2023-07-12T02:57:49.613Z,13.07
2023-07-12T03:00:16.347Z,13.70
2023-07-12T03:02:43.037Z,13.73
2023-07-12T03:05:09.868Z,14.30
2023-07-12T03:07:36.973Z,12.93
2023-07-12T03:10:04.808Z,14.03
2023-07-12T03:12:31.713Z,13.73
2023-07-12T03:14:58.848Z,14.10
2023-07-12T03:17:25.630Z,15.10
2023-07-12T03:19:52.349Z,16.23
2023-07-12T03:22:18.990Z,14.90
2023-07-12T03:27:29.780Z,15.00
2023-07-12T03:29:56.728Z,16.70
2023-07-12T03:32:24.131Z,16.70
2023-07-12T03:34:50.799Z,15.70
2023-07-12T03:40:01.522Z,15.43
2023-07-12T03:42:28.392Z,14.87
2023-07-12T03:44:55.088Z,16.03
2023-07-12T03:47:23.845Z,14.70
2023-07-12T03:49:51.929Z,14.80
2023-07-12T03:52:18.758Z,14.43
2023-07-12T03:54:45.490Z,14.63
2023-07-12T03:57:12.230Z,14.63
2023-07-12T03:59:38.856Z,14.90
2023-07-12T04:02:05.845Z,14.10
2023-07-12T04:04:32.590Z,13.57
2023-07-12T04:07:01.802Z,13.47
2023-07-12T04:09:28.586Z,14.17
2023-07-12T04:11:55.338Z,13.37
2023-07-12T04:14:22.008Z,12.77
2023-07-12T04:16:49.043Z,12.20
2023-07-12T04:19:15.918Z,12.57
2023-07-12T04:21:42.570Z,12.23
2023-07-12T04:24:09.262Z,13.10
2023-07-12T04:26:39.044Z,12.17
2023-07-12T04:29:06.503Z,12.07
2023-07-12T04:31:33.355Z,11.37
2023-07-12T04:36:44.321Z,11.07
2023-07-12T04:39:11.413Z,10.37
2023-07-12T04:41:38.495Z,9.90
2023-07-12T04:44:05.510Z,11.10
2023-07-12T04:49:17.054Z,9.80
2023-07-12T04:54:28.422Z,9.30
2023-07-12T04:56:55.164Z,8.93
2023-07-12T04:59:22.432Z,8.57
2023-07-12T05:01:50.204Z,8.40
2023-07-12T05:04:16.935Z,8.50
2023-07-12T05:06:43.656Z,7.80
2023-07-12T05:09:10.601Z,7.33
2023-07-12T05:11:37.629Z,7.27
2023-07-12T05:14:07.349Z,6.60
2023-07-12T05:16:34.277Z,7.40
2023-07-12T05:19:01.165Z,6.97
2023-07-12T05:21:27.964Z,18.83
2023-07-12T05:23:54.703Z,7.40
2023-07-12T05:26:21.518Z,6.60
2023-07-12T05:28:48.170Z,6.10
2023-07-12T05:31:14.960Z,5.90
2023-07-12T05:33:42.437Z,6.63
2023-07-12T05:36:09.554Z,6.20
2023-07-12T05:38:36.277Z,5.67
2023-07-12T05:41:03.678Z,5.13
2023-07-12T05:43:30.447Z,5.60
2023-07-12T05:46:00.107Z,5.50
2023-07-12T05:48:26.965Z,5.53
2023-07-12T05:50:54.286Z,5.37
2023-07-12T05:53:21.044Z,5.20
2023-07-12T05:55:47.863Z,4.93
2023-07-12T05:58:14.681Z,4.73
2023-07-12T06:00:41.434Z,4.70
2023-07-12T06:03:08.308Z,4.57
2023-07-12T06:05:35.114Z,4.87
2023-07-12T06:08:01.886Z,4.80
2023-07-12T06:13:14.389Z,4.00
2023-07-12T06:15:41.474Z,4.57
2023-07-12T06:18:08.430Z,4.63
2023-07-12T06:20:35.596Z,4.07
2023-07-12T06:23:03.754Z,4.30
2023-07-12T06:25:31.132Z,4.10
2023-07-12T06:27:58.834Z,4.07
2023-07-12T06:30:26.586Z,3.80
2023-07-12T06:32:53.779Z,4.03
2023-07-12T06:35:20.491Z,3.87
2023-07-12T06:37:47.327Z,3.90
2023-07-12T06:40:14.086Z,4.03
2023-07-12T06:42:41.103Z,3.73
2023-07-12T06:45:09.838Z,3.80
2023-07-12T06:47:36.692Z,3.53
2023-07-12T06:50:03.406Z,3.60
2023-07-12T06:55:14.495Z,3.80
2023-07-12T06:57:41.240Z,3.90
2023-07-12T07:00:10.013Z,3.93
2023-07-12T07:02:36.908Z,3.87
2023-07-12T07:05:04.534Z,4.23
2023-07-12T07:07:31.502Z,4.10
2023-07-12T07:09:58.346Z,3.77
2023-07-12T07:12:25.089Z,3.90
2023-07-12T07:14:52.315Z,4.00
2023-07-12T07:17:19.264Z,3.70
2023-07-12T07:19:46.123Z,3.60
2023-07-12T07:22:13.031Z,3.87
2023-07-12T07:24:40.361Z,4.03
2023-07-12T07:27:07.576Z,3.30
2023-07-12T07:29:36.226Z,3.70
2023-07-12T07:32:04.846Z,3.80
2023-07-12T07:34:33.832Z,4.37
2023-07-12T07:37:03.385Z,3.47
2023-07-12T07:39:31.907Z,3.73
2023-07-12T07:41:59.331Z,3.60
2023-07-12T07:44:26.069Z,3.60
2023-07-12T07:46:53.301Z,3.83
2023-07-12T07:49:20.066Z,3.53
2023-07-12T07:51:46.933Z,3.83
2023-07-12T07:56:58.868Z,3.80
2023-07-12T08:02:10.975Z,3.57
2023-07-12T08:04:38.400Z,3.70
2023-07-12T08:07:07.040Z,3.63
2023-07-12T08:09:37.064Z,3.97
2023-07-12T08:12:04.393Z,3.93
2023-07-12T08:14:32.295Z,4.00
2023-07-12T08:16:58.947Z,3.90
2023-07-12T08:19:25.953Z,3.60
2023-07-12T08:21:55.882Z,4.00
2023-07-12T08:24:22.598Z,3.47
2023-07-12T08:27:06.049Z,3.20
2023-07-12T08:29:35.390Z,3.20
2023-07-12T08:32:03.333Z,3.20
2023-07-12T08:34:31.600Z,3.20
2023-07-12T08:36:58.945Z,3.63
2023-07-12T08:39:25.740Z,3.00
2023-07-12T08:41:53.084Z,3.40
2023-07-12T08:44:19.873Z,3.40
2023-07-12T08:46:51.595Z,3.60
2023-07-12T08:49:18.930Z,3.70
2023-07-12T08:51:45.997Z,3.10
2023-07-12T08:57:10.551Z,3.40
2023-07-12T08:59:37.392Z,2.77
2023-07-12T09:02:04.451Z,3.10
2023-07-12T09:04:34.650Z,2.93
2023-07-12T09:07:02.426Z,3.20
2023-07-12T09:09:30.506Z,3.10
2023-07-12T09:11:57.394Z,3.00
2023-07-12T09:14:24.883Z,2.97
2023-07-12T09:16:57.103Z,3.00
2023-07-12T09:19:25.338Z,2.90
2023-07-12T09:21:54.694Z,3.10
2023-07-12T09:24:22.837Z,3.00
2023-07-12T09:26:51.480Z,2.90
2023-07-12T09:29:23.037Z,2.80
2023-07-12T09:31:49.938Z,2.90
2023-07-12T09:34:18.528Z,3.20
2023-07-12T09:36:45.372Z,2.77
2023-07-12T09:39:12.235Z,2.87
2023-07-12T09:41:51.909Z,3.23
2023-07-12T09:44:19.243Z,2.80
2023-07-12T09:46:48.585Z,3.00
2023-07-12T09:49:21.152Z,3.00
2023-07-12T09:51:50.919Z,2.70
2023-07-12T09:54:30.186Z,2.97
2023-07-12T09:56:57.778Z,2.63
2023-07-12T09:59:38.462Z,2.90
2023-07-12T10:02:20.863Z,2.53
2023-07-12T10:04:51.931Z,2.80
2023-07-12T10:07:29.857Z,2.80
2023-07-12T10:09:56.779Z,2.43
2023-07-12T10:12:29.573Z,2.97
2023-07-12T10:14:57.535Z,2.87
2023-07-12T10:17:37.933Z,2.73
2023-07-12T10:20:05.920Z,2.73
2023-07-12T10:22:36.279Z,2.80
2023-07-12T10:25:05.876Z,2.53
2023-07-12T10:27:34.368Z,2.93
2023-07-12T10:30:05.622Z,2.97
2023-07-12T10:35:35.831Z,2.63
2023-07-12T10:38:15.801Z,3.10
2023-07-12T10:40:54.982Z,3.10
2023-07-12T10:46:07.783Z,2.90
2023-07-12T10:48:35.061Z,3.03
2023-07-12T10:51:20.772Z,2.80
2023-07-12T10:53:54.243Z,2.97
2023-07-12T10:56:40.181Z,3.30
2023-07-12T10:59:25.803Z,2.87
2023-07-12T11:01:54.142Z,3.13
2023-07-12T11:04:26.956Z,3.83
2023-07-12T11:07:01.015Z,3.17
2023-07-12T11:09:50.694Z,3.67
2023-07-12T11:12:17.574Z,3.20
2023-07-12T11:14:49.367Z,3.60
2023-07-12T11:17:23.509Z,3.37
2023-07-12T11:19:52.031Z,3.10
2023-07-12T11:22:25.435Z,3.63
2023-07-12T11:24:59.880Z,3.53
2023-07-12T11:27:28.148Z,3.20
2023-07-12T11:29:55.410Z,3.70
2023-07-12T11:32:25.595Z,3.50
2023-07-12T11:35:01.448Z,3.30
2023-07-12T11:37:47.522Z,3.80
2023-07-12T11:40:22.008Z,3.80
2023-07-12T11:42:48.963Z,3.70
2023-07-12T11:45:17.246Z,3.80
2023-07-12T11:47:45.231Z,3.30
2023-07-12T11:50:19.230Z,3.57
2023-07-12T11:52:46.218Z,3.60
2023-07-12T11:55:16.711Z,3.77
2023-07-12T11:57:44.050Z,3.60
2023-07-12T12:00:17.075Z,3.57
2023-07-12T12:02:46.699Z,3.73
2023-07-12T12:05:17.788Z,3.93
2023-07-12T12:07:44.935Z,3.83
2023-07-12T12:10:19.469Z,4.00
2023-07-12T12:12:46.843Z,4.07
2023-07-12T12:18:17.574Z,3.87
2023-07-12T12:23:39.441Z,4.17
2023-07-12T12:26:14.332Z,4.07
2023-07-12T12:28:41.197Z,4.03
2023-07-12T12:34:05.095Z,4.60
2023-07-12T12:36:32.783Z,4.50
2023-07-12T12:41:36.676Z,3.63
2023-07-12T12:44:06.953Z,4.13
2023-07-12T12:51:01.640Z,3.93
2023-07-12T12:54:24.870Z,3.93
2023-07-12T13:21:58.404Z,7.17
2023-07-12T13:24:25.275Z,7.23
2023-07-12T13:26:52.163Z,7.43
2023-07-12T13:29:19.599Z,7.03
2023-07-12T13:31:46.467Z,6.83
2023-07-12T13:34:15.425Z,7.77
2023-07-12T13:36:46.763Z,8.20
2023-07-12T13:46:49.280Z,6.93
2023-07-12T13:49:16.472Z,7.73
2023-07-12T13:51:43.410Z,7.67
2023-07-12T13:54:10.840Z,7.33
2023-07-12T14:09:32.910Z,7.10
2023-07-12T14:14:45.017Z,6.77
2023-07-12T14:17:13.072Z,6.37
2023-07-12T14:19:44.090Z,6.47
2023-07-12T14:22:32.286Z,7.00
2023-07-12T14:24:59.569Z,6.30
2023-07-12T14:27:27.305Z,6.60
2023-07-12T14:32:26.180Z,7.07
2023-07-12T14:34:53.220Z,6.17
2023-07-12T14:37:20.441Z,6.47
2023-07-12T14:39:48.024Z,6.80
2023-07-12T14:42:19.600Z,7.30
2023-07-12T14:44:47.949Z,7.20
2023-07-12T14:47:15.642Z,6.60
2023-07-12T14:49:43.032Z,6.60
2023-07-12T14:52:16.079Z,6.43
2023-07-12T14:57:28.506Z,6.33
2023-07-12T15:00:00.017Z,7.00
2023-07-12T15:02:31.837Z,6.77
2023-07-12T15:04:59.189Z,6.37
2023-07-12T15:07:31.166Z,6.73
2023-07-12T15:09:59.048Z,6.80
2023-07-12T15:12:39.293Z,7.03
2023-07-12T15:15:27.867Z,7.20
2023-07-12T15:18:10.998Z,7.20
2023-07-12T15:20:38.966Z,6.70
2023-07-12T15:23:10.204Z,7.20
2023-07-12T15:25:37.548Z,7.57
2023-07-12T15:28:05.824Z,7.57
2023-07-12T15:30:34.750Z,7.10
2023-07-12T15:33:01.795Z,7.40
2023-07-12T15:35:30.024Z,7.47
2023-07-12T15:38:01.013Z,8.47
2023-07-12T15:40:44.876Z,8.13
2023-07-12T15:43:11.942Z,9.03
2023-07-12T15:45:38.790Z,9.27
2023-07-12T15:48:25.898Z,8.50
2023-07-12T15:50:54.493Z,8.77
2023-07-12T15:53:27.584Z,8.87
2023-07-12T15:56:00.401Z,8.90
2023-07-12T15:58:31.277Z,8.67
2023-07-12T16:01:05.700Z,9.33
2023-07-12T16:03:39.481Z,8.13
2023-07-12T16:07:07.422Z,8.77
2023-07-12T16:23:47.463Z,8.23
2023-07-12T16:30:09.452Z,9.30
2023-07-12T16:32:36.414Z,9.03
2023-07-12T16:35:03.706Z,8.50
2023-07-12T16:37:30.671Z,8.10
2023-07-12T16:39:57.626Z,7.53
2023-07-12T16:42:24.461Z,7.97
2023-07-12T16:44:51.324Z,7.70
2023-07-12T16:47:19.523Z,6.53
2023-07-12T16:49:46.809Z,6.43
2023-07-12T16:55:00.504Z,6.43
2023-07-12T16:57:27.561Z,6.03
2023-07-12T16:59:55.050Z,6.07
2023-07-12T17:02:24.111Z,5.77
2023-07-12T17:04:51.107Z,5.47
2023-07-12T17:07:20.884Z,5.10
2023-07-12T17:09:48.750Z,5.30
2023-07-12T17:12:23.152Z,5.17
2023-07-12T17:14:51.061Z,4.20
2023-07-12T17:17:18.149Z,3.80
2023-07-12T17:19:45.121Z,3.93
2023-07-12T17:22:12.496Z,2.83
2023-07-12T17:24:40.361Z,3.00
2023-07-12T17:27:15.046Z,3.10
2023-07-12T17:29:41.997Z,2.83
2023-07-12T17:32:20.306Z,2.63
2023-07-12T17:34:48.617Z,2.70
2023-07-12T17:37:19.367Z,2.60
2023-07-12T17:39:58.772Z,2.83
2023-07-12T17:42:30.949Z,2.53
2023-07-12T17:44:58.819Z,2.37
2023-07-12T17:47:29.998Z,2.57
2023-07-12T17:49:57.547Z,2.50
2023-07-12T17:52:24.955Z,2.50
2023-07-12T17:54:52.375Z,3.00
2023-07-12T17:57:23.976Z,2.53
2023-07-12T18:02:42.187Z,3.00
2023-07-12T18:05:21.322Z,2.83
2023-07-12T18:07:49.252Z,2.80
2023-07-12T18:10:15.967Z,2.50
2023-07-12T18:12:42.773Z,2.60
2023-07-12T18:15:16.145Z,3.13
2023-07-12T18:17:43.464Z,2.90
2023-07-12T18:20:12.788Z,2.90
2023-07-12T18:22:40.530Z,2.93
2023-07-12T18:25:49.214Z,2.57
2023-07-12T18:28:24.007Z,2.93
2023-07-12T18:30:55.338Z,2.97
2023-07-12T18:33:49.814Z,3.10
2023-07-12T18:36:20.735Z,3.07
2023-07-12T18:38:48.132Z,2.90
2023-07-12T18:44:10.270Z,2.50
2023-07-12T18:49:26.576Z,2.60
2023-07-12T18:51:58.156Z,2.83
2023-07-12T18:54:25.454Z,2.50
2023-07-12T18:56:52.386Z,2.83
2023-07-12T19:02:11.612Z,2.77
2023-07-12T19:04:39.169Z,2.80
2023-07-12T19:07:08.337Z,2.97
2023-07-12T19:09:37.710Z,2.53
2023-07-12T19:12:04.954Z,3.00
2023-07-12T19:14:32.224Z,2.73
2023-07-12T19:17:00.296Z,2.40
2023-07-12T19:22:20.886Z,2.90
2023-07-12T19:24:48.213Z,2.47
2023-07-12T19:27:33.919Z,2.73
2023-07-12T19:30:07.085Z,2.30
2023-07-12T19:32:36.749Z,2.67
2023-07-12T19:35:04.085Z,2.60
2023-07-12T19:37:30.868Z,2.97
2023-07-12T19:39:59.868Z,3.17
2023-07-12T19:42:26.689Z,2.90
2023-07-12T19:44:53.572Z,2.67
2023-07-12T19:47:20.418Z,2.63
2023-07-12T19:49:47.547Z,2.90
2023-07-12T19:52:15.196Z,3.00
2023-07-12T19:54:42.118Z,3.10
2023-07-12T19:57:15.614Z,2.80
2023-07-12T19:59:43.315Z,3.77
2023-07-12T20:02:18.622Z,3.17
2023-07-12T20:07:30.431Z,3.20
2023-07-12T20:09:57.856Z,2.77
2023-07-12T20:12:25.250Z,2.70
2023-07-12T20:14:51.883Z,2.60
2023-07-12T20:17:20.688Z,3.00
2023-07-12T20:19:47.876Z,2.70
2023-07-12T20:22:15.508Z,2.73
2023-07-12T20:24:44.244Z,2.97
2023-07-12T20:27:11.973Z,2.80
2023-07-12T20:29:39.377Z,2.87
2023-07-12T20:32:07.587Z,2.87
2023-07-12T20:34:36.784Z,3.40
2023-07-12T20:37:05.617Z,2.80
2023-07-12T20:39:32.688Z,2.97
2023-07-12T20:42:01.399Z,3.00
2023-07-12T20:44:28.336Z,2.80
2023-07-12T20:46:55.269Z,3.40
2023-07-12T20:49:23.135Z,3.13
2023-07-12T20:51:49.998Z,2.63
2023-07-12T20:54:16.696Z,3.10
2023-07-12T20:56:43.525Z,2.80
2023-07-12T20:59:10.702Z,3.10
2023-07-12T21:01:37.606Z,2.80
2023-07-12T21:04:04.541Z,3.23
2023-07-12T21:06:31.526Z,3.03
2023-07-12T21:08:58.434Z,3.00
2023-07-12T21:11:25.456Z,2.80
2023-07-12T21:13:52.287Z,2.77
2023-07-12T21:16:23.357Z,2.80
2023-07-12T21:18:52.661Z,2.40
2023-07-12T21:21:19.741Z,2.80
2023-07-12T21:23:48.868Z,3.27
2023-07-12T21:26:15.546Z,2.83
2023-07-12T21:28:42.270Z,3.00
2023-07-12T21:31:12.135Z,3.43
2023-07-12T21:33:40.492Z,2.87
2023-07-12T21:36:07.413Z,3.47
2023-07-12T21:38:35.071Z,3.10
2023-07-12T21:41:03.005Z,2.57
2023-07-12T21:43:29.734Z,3.03
2023-07-12T21:45:56.471Z,3.20
2023-07-12T21:48:23.310Z,3.07
2023-07-12T21:50:50.044Z,2.70
2023-07-12T21:56:01.026Z,3.00
2023-07-12T21:58:28.346Z,3.57
2023-07-12T22:00:55.003Z,3.70
2023-07-12T22:03:21.681Z,3.20
2023-07-12T22:05:48.421Z,3.13
2023-07-12T22:08:15.339Z,3.03
2023-07-12T22:10:42.174Z,3.17
2023-07-12T22:13:09.187Z,3.27
2023-07-12T22:15:37.080Z,3.17
2023-07-12T22:18:04.179Z,3.57
2023-07-12T22:23:14.968Z,2.90
2023-07-12T22:25:42.584Z,3.10
2023-07-12T22:28:09.503Z,3.27
2023-07-12T22:30:37.373Z,3.53
2023-07-12T22:33:04.220Z,3.70
2023-07-12T22:35:31.083Z,4.63
2023-07-12T22:37:58.806Z,4.43
2023-07-12T22:40:25.995Z,4.20
2023-07-12T22:42:52.844Z,4.07
2023-07-12T22:45:19.796Z,4.20
2023-07-12T22:47:46.582Z,3.97
2023-07-12T22:50:13.890Z,3.67
2023-07-12T22:52:40.995Z,3.63
2023-07-12T22:55:08.323Z,3.77
2023-07-12T22:57:34.986Z,3.67
2023-07-12T23:00:01.841Z,4.00
2023-07-12T23:05:12.798Z,3.63
2023-07-12T23:07:39.591Z,4.33
2023-07-12T23:10:06.695Z,3.93
2023-07-12T23:12:33.425Z,3.70
2023-07-12T23:17:47.638Z,3.87
2023-07-12T23:20:15.219Z,3.60
2023-07-12T23:22:42.015Z,3.40
2023-07-12T23:25:09.048Z,3.70
2023-07-12T23:27:35.883Z,3.73
2023-07-12T23:30:03.915Z,3.23
2023-07-12T23:32:30.833Z,3.93
2023-07-12T23:34:58.752Z,3.27
2023-07-12T23:37:30.437Z,3.30
2023-07-12T23:39:57.440Z,3.57
2023-07-12T23:45:11.002Z,3.30
2023-07-12T23:47:37.639Z,2.83
2023-07-12T23:50:04.535Z,3.60
2023-07-12T23:52:31.388Z,3.90
2023-07-12T23:54:59.858Z,3.73
2023-07-12T23:57:26.479Z,3.63
2023-07-12T23:59:53.688Z,4.00
